Etusivu
METAR-TAF:

METAR-TAF

Lentoasemat :

Fayetteville, Tennessee, Yhdysvallat

Leveyspiiri: 35-03-35N, Pituuspiiri: 086-33-50W, korkeus merenpinnasta: 300 m

Tämänhetkinen sää

Tämä raportti tehtiin 24 minuuttia sitten, kello 14.35 UTC
Tuuli 12 kn etelästä puuskistuen 17 kn:hen
Lämpötila 14°C
Kosteus 77%
Ilmanpaine 1013 hPa
Näkyvyys: 16.1 km
Pilvistä 1300 ft:n korkeudessa

METAR: KFYM 091435Z AUTO 18012G17KT 10SM OVC013 14/10 A2991 RMK A01

Aika: 08:59 (14:59 UTC)


TAF: puuttuu

Säähavainnot ja -ennusteet yli 4000 lentoasemalta (METAR- ja TAF-raportit).

Käytössä olevat sääasemat on merkitty karttaan keltaisilla ja punaisilla pisteillä.

Aseta hiiri pisteen päälle nähdäksesi sääaseman nimen.

Klikkaa sitten nähdäksesi säähavainnot ja -ennusteet.

Kartan vaihtaminen: klikkaa mustalla rastilla varustettuja vihreitä pisteitä, niin voit zoomata sisään; viivalla varustettua vihreää pistettä, niin voit zoomata ulos tai vihreitä nuolia, niin pääset viereisille kartoille.


METAR-TAF: